»·PEaware :: PSV800 BGBW-CYQM

PSV800 :: BGBW-CYQM

FLIGHT INFORMATION

Flight Status: Arrived
Operator:
Power Set Virtual (website)
More flights by this operator :: More flights under this callsign
Pilot: Scott L. (17677)
Aircraft: CESSNA 510 CITATION MUSTANG
(C510)
More flights by this aircraft type
Origin: BGBW Narsarsuaq
Greenland
Destination: CYQM Moncton
Canada
More flights between these airports :: More routes between these airports
Route: SI 5850N 5654N CA KODIK 5259N YGV AR1 GP V380 YY
File this flight plan on PilotEdge
Remarks:
Altitude:
(Current/Filed)
36,000ft
Speed:
(Current/Filed)
350kts
Departed: 03-Apr-20 05:53 AM
Arrived: 03-Apr-20 07:58 AM
Distance/Time
Traveled:
1124nm/2:05
Distance/Time
To Go:
Arrived

Flight Plot

Page will automatically refresh every two minutes.

Flight plan parsing failed; only flown route is shown


Map Options




Map Legend


Flown Route
Filed Route
Departure Airport
Arrival Airport
Navaid (VOR, NDB)
Fix

Horizontal Profiles

Position Reports

Time Latitude Longitude Heading Altitude Ground
Speed
03-Apr-20 05:51 54.658565 -55.647211 230 36560ft 411kts
03-Apr-20 05:52 54.571700 -55.776523 229 36567ft 412kts
03-Apr-20 05:53 54.484815 -55.905086 229 36567ft 413kts
03-Apr-20 05:54 54.397323 -56.033822 229 36569ft 413kts
03-Apr-20 05:55 54.309855 -56.161763 229 36567ft 413kts
03-Apr-20 05:56 54.222088 -56.289358 229 36570ft 413kts
03-Apr-20 05:57 54.134621 -56.415860 229 36569ft 413kts
03-Apr-20 05:58 54.046720 -56.542198 229 36570ft 413kts
03-Apr-20 05:59 53.958489 -56.668357 228 36576ft 413kts
03-Apr-20 06:00 53.869761 -56.794437 228 36565ft 414kts
03-Apr-20 06:01 53.781458 -56.919213 229 36565ft 414kts
03-Apr-20 06:02 53.688084 -57.036168 213 36572ft 430kts
03-Apr-20 06:03 53.577867 -57.118381 212 36565ft 432kts
03-Apr-20 06:04 53.469054 -57.203145 227 36541ft 415kts
03-Apr-20 06:05 53.401076 -57.350244 242 36565ft 397kts
03-Apr-20 06:06 53.335191 -57.500456 242 36565ft 398kts
03-Apr-20 06:07 53.269457 -57.649412 242 36565ft 398kts
03-Apr-20 06:08 53.203087 -57.798830 242 36572ft 399kts
03-Apr-20 06:09 53.136295 -57.948399 242 36572ft 400kts
03-Apr-20 06:10 53.069359 -58.097600 241 36570ft 402kts
03-Apr-20 06:11 53.001350 -58.248406 240 36572ft 409kts
03-Apr-20 06:12 52.931960 -58.401046 240 36564ft 416kts
03-Apr-20 06:13 52.861435 -58.554772 240 36551ft 418kts
03-Apr-20 06:14 52.790830 -58.708027 239 36579ft 418kts
03-Apr-20 06:15 52.719779 -58.861542 239 36602ft 419kts
03-Apr-20 06:16 52.648661 -59.014471 238 36602ft 419kts
03-Apr-20 06:17 52.577276 -59.166582 238 36602ft 418kts
03-Apr-20 06:18 52.505784 -59.318072 238 36602ft 418kts
03-Apr-20 06:19 52.434288 -59.468785 238 36602ft 418kts
03-Apr-20 06:20 52.362352 -59.619552 238 36602ft 418kts
03-Apr-20 06:21 52.290364 -59.769553 237 36607ft 419kts
03-Apr-20 06:22 52.218034 -59.919374 237 36607ft 420kts
03-Apr-20 06:23 52.145384 -60.068974 237 36607ft 420kts
03-Apr-20 06:24 52.072501 -60.218180 237 36607ft 420kts
03-Apr-20 06:25 51.999475 -60.366810 237 36607ft 420kts
03-Apr-20 06:27 51.925883 -60.515719 237 36607ft 420kts
03-Apr-20 06:28 51.852576 -60.663182 237 36599ft 420kts
03-Apr-20 06:29 51.779073 -60.810209 236 36582ft 420kts
03-Apr-20 06:30 51.705303 -60.956933 236 36455ft 422kts
03-Apr-20 06:31 51.631299 -61.103788 236 36391ft 421kts
03-Apr-20 06:32 51.557409 -61.249133 235 36392ft 419kts
03-Apr-20 06:33 51.483131 -61.393882 235 36392ft 418kts
03-Apr-20 06:34 51.409100 -61.537671 235 36392ft 418kts
03-Apr-20 06:35 51.334715 -61.681439 234 36395ft 419kts
03-Apr-20 06:36 51.260269 -61.824539 234 36395ft 419kts
03-Apr-20 06:37 51.185406 -61.967641 234 36395ft 419kts
03-Apr-20 06:38 51.110321 -62.110371 234 36396ft 419kts
03-Apr-20 06:39 51.035192 -62.252396 234 36395ft 420kts
03-Apr-20 06:40 50.959875 -62.394698 233 36396ft 425kts
03-Apr-20 06:41 50.882787 -62.539275 231 36392ft 431kts
03-Apr-20 06:42 50.804630 -62.683866 230 36390ft 433kts
03-Apr-20 06:43 50.726282 -62.828324 230 36385ft 434kts
03-Apr-20 06:44 50.647653 -62.972968 230 36383ft 434kts
03-Apr-20 06:45 50.569133 -63.116612 230 36383ft 432kts
03-Apr-20 06:46 50.490486 -63.259386 229 36383ft 431kts
03-Apr-20 06:47 50.412036 -63.401109 229 36384ft 431kts
03-Apr-20 06:48 50.332982 -63.543212 229 36383ft 431kts
03-Apr-20 06:48 50.267144 -63.660854 228 36384ft 431kts
03-Apr-20 06:50 50.172520 -63.822661 227 36385ft 431kts
03-Apr-20 06:50 50.104942 -63.937374 227 36385ft 431kts
03-Apr-20 06:51 50.023646 -64.074702 227 36386ft 431kts
03-Apr-20 06:53 49.928429 -64.234618 227 36386ft 431kts
03-Apr-20 06:53 49.860380 -64.348028 225 36379ft 432kts
03-Apr-20 06:54 49.746664 -64.386591 179 36363ft 430kts
03-Apr-20 06:55 49.626727 -64.386320 179 36330ft 430kts
03-Apr-20 06:56 49.506909 -64.386032 179 36318ft 430kts
03-Apr-20 06:57 49.387377 -64.385894 179 36320ft 430kts
03-Apr-20 06:58 49.267375 -64.385726 179 36324ft 431kts
03-Apr-20 06:59 49.147580 -64.385605 179 36320ft 431kts
03-Apr-20 07:00 49.027823 -64.385915 178 36323ft 432kts
03-Apr-20 07:01 48.907309 -64.385930 176 36323ft 432kts
03-Apr-20 07:02 48.787530 -64.385350 176 36320ft 431kts
03-Apr-20 07:03 48.675046 -64.335400 156 36219ft 424kts
03-Apr-20 07:04 48.562092 -64.274720 157 35234ft 434kts
03-Apr-20 07:05 48.447623 -64.213727 157 34240ft 435kts
03-Apr-20 07:06 48.333289 -64.153106 157 33248ft 435kts
03-Apr-20 07:07 48.218860 -64.092727 157 32256ft 435kts
03-Apr-20 07:08 48.104900 -64.032884 157 31267ft 434kts
03-Apr-20 07:09 47.990709 -63.973198 157 30274ft 433kts
03-Apr-20 07:10 47.877006 -63.914037 156 29278ft 432kts
03-Apr-20 07:11 47.763928 -63.855487 156 28268ft 429kts
03-Apr-20 07:12 47.651265 -63.797359 156 27409ft 422kts
03-Apr-20 07:13 47.554155 -63.747767 156 26355ft 346kts
03-Apr-20 07:14 47.469721 -63.704587 155 24387ft 345kts
03-Apr-20 07:15 47.368896 -63.652767 156 22989ft 397kts
03-Apr-20 07:16 47.264519 -63.599975 156 22766ft 395kts
03-Apr-20 07:17 47.160723 -63.547574 156 22576ft 393kts
03-Apr-20 07:18 47.057369 -63.495573 156 22396ft 392kts
03-Apr-20 07:19 46.954755 -63.444501 155 22313ft 389kts
03-Apr-20 07:20 46.861867 -63.398677 153 20803ft 319kts
03-Apr-20 07:21 46.781770 -63.358365 153 18766ft 298kts
03-Apr-20 07:22 46.704316 -63.319628 154 16764ft 292kts
03-Apr-20 07:23 46.628467 -63.281988 154 14786ft 288kts
03-Apr-20 07:24 46.553145 -63.244810 154 12799ft 285kts
03-Apr-20 07:25 46.478297 -63.208011 154 10807ft 284kts
03-Apr-20 07:26 46.403219 -63.171127 154 8820ft 288kts
03-Apr-20 07:27 46.328264 -63.134397 155 6861ft 292kts
03-Apr-20 07:28 46.252202 -63.097705 155 6034ft 268kts
03-Apr-20 07:29 46.202234 -63.153989 289 4625ft 261kts
03-Apr-20 07:30 46.231023 -63.258971 285 3033ft 288kts
03-Apr-20 07:31 46.233969 -63.368247 272 3038ft 263kts
03-Apr-20 07:32 46.231049 -63.472646 271 3037ft 258kts
03-Apr-20 07:33 46.227475 -63.576377 271 3043ft 257kts
03-Apr-20 07:34 46.223924 -63.679532 271 3034ft 258kts
03-Apr-20 07:35 46.220240 -63.783004 270 3036ft 257kts
03-Apr-20 07:36 46.216417 -63.886155 270 3033ft 258kts
03-Apr-20 07:37 46.212476 -63.990774 270 3029ft 259kts
03-Apr-20 07:38 46.208440 -64.095654 270 3022ft 262kts
03-Apr-20 07:39 46.204253 -64.200877 270 3020ft 263kts
03-Apr-20 07:40 46.200028 -64.306795 270 3022ft 263kts
03-Apr-20 07:41 46.195574 -64.413872 270 3026ft 271kts
03-Apr-20 07:42 46.190907 -64.523244 270 3019ft 274kts
03-Apr-20 07:43 46.156319 -64.618181 224 3023ft 281kts
03-Apr-20 07:44 46.099967 -64.696859 223 3020ft 281kts
03-Apr-20 07:45 46.043855 -64.775683 223 3021ft 281kts
03-Apr-20 07:46 45.995576 -64.852601 262 3014ft 253kts
03-Apr-20 07:47 45.992140 -64.953942 270 3023ft 250kts
03-Apr-20 07:48 45.980797 -65.040919 238 3008ft 211kts
03-Apr-20 07:49 45.936673 -65.018756 105 3033ft 222kts
03-Apr-20 07:50 45.919996 -64.933547 62 3008ft 220kts
03-Apr-20 07:51 45.969710 -64.882270 44 3025ft 222kts
03-Apr-20 07:52 46.006511 -64.829345 45 2161ft 178kts
03-Apr-20 07:53 46.037311 -64.788565 43 2014ft 127kts
03-Apr-20 07:54 46.064080 -64.751738 43 1137ft 125kts
03-Apr-20 07:55 46.086833 -64.719958 47 996ft 102kts
03-Apr-20 07:56 46.107363 -64.692549 41 245ft 93kts
03-Apr-20 07:57 46.114986 -64.687695 336 199ft 0kts

Navigation Log

Ident Type
Flight plan parsing failed, navigation log unavailable